sensor_id;sensor_type;location;lat;lon;timestamp;P1;durP1;ratioP1;P2;durP2;ratioP2
23360;SDS011;11852;50.082;18.554;2023-09-19T00:00:21;14.2;;;8.9;;
23360;SDS011;11852;50.082;18.554;2023-09-19T00:01:26;17.5;;;8.4;;
23360;SDS011;11852;50.082;18.554;2023-09-19T00:02:30;13.7;;;9.3;;
23360;SDS011;11852;50.082;18.554;2023-09-19T00:03:38;13.6;;;9.4;;
23360;SDS011;11852;50.082;18.554;2023-09-19T00:04:43;14.7;;;9.6;;
23360;SDS011;11852;50.082;18.554;2023-09-19T00:05:47;13.1;;;8.5;;
23360;SDS011;11852;50.082;18.554;2023-09-19T00:06:52;12.9;;;9.5;;
23360;SDS011;11852;50.082;18.554;2023-09-19T00:07:57;15.3;;;9.7;;
23360;SDS011;11852;50.082;18.554;2023-09-19T00:09:02;15.0;;;9.5;;
23360;SDS011;11852;50.082;18.554;2023-09-19T00:10:07;16.0;;;9.8;;
23360;SDS011;11852;50.082;18.554;2023-09-19T00:11:11;14.9;;;9.5;;
23360;SDS011;11852;50.082;18.554;2023-09-19T00:12:16;15.5;;;9.1;;
23360;SDS011;11852;50.082;18.554;2023-09-19T00:13:21;13.4;;;8.6;;
23360;SDS011;11852;50.082;18.554;2023-09-19T00:14:26;15.1;;;9.5;;
23360;SDS011;11852;50.082;18.554;2023-09-19T00:15:31;13.9;;;9.2;;
23360;SDS011;11852;50.082;18.554;2023-09-19T00:16:35;14.0;;;9.6;;
23360;SDS011;11852;50.082;18.554;2023-09-19T00:17:40;14.6;;;9.0;;
23360;SDS011;11852;50.082;18.554;2023-09-19T00:18:45;15.3;;;9.3;;
23360;SDS011;11852;50.082;18.554;2023-09-19T00:19:49;14.6;;;9.2;;
23360;SDS011;11852;50.082;18.554;2023-09-19T00:20:59;13.6;;;9.6;;
23360;SDS011;11852;50.082;18.554;2023-09-19T00:22:02;14.1;;;9.0;;
23360;SDS011;11852;50.082;18.554;2023-09-19T00:23:07;14.4;;;9.5;;
23360;SDS011;11852;50.082;18.554;2023-09-19T00:24:11;13.3;;;9.4;;
23360;SDS011;11852;50.082;18.554;2023-09-19T00:25:16;14.3;;;9.4;;
23360;SDS011;11852;50.082;18.554;2023-09-19T00:26:21;14.1;;;8.8;;
23360;SDS011;11852;50.082;18.554;2023-09-19T00:27:26;14.5;;;9.2;;
23360;SDS011;11852;50.082;18.554;2023-09-19T00:28:31;15.0;;;9.5;;
23360;SDS011;11852;50.082;18.554;2023-09-19T00:29:35;14.7;;;9.4;;
23360;SDS011;11852;50.082;18.554;2023-09-19T00:30:42;13.5;;;8.9;;
23360;SDS011;11852;50.082;18.554;2023-09-19T00:31:45;14.7;;;9.1;;
23360;SDS011;11852;50.082;18.554;2023-09-19T00:32:50;17.5;;;9.3;;
23360;SDS011;11852;50.082;18.554;2023-09-19T00:33:54;15.4;;;8.8;;
23360;SDS011;11852;50.082;18.554;2023-09-19T00:34:59;14.7;;;8.7;;
23360;SDS011;11852;50.082;18.554;2023-09-19T00:36:04;39.1;;;9.8;;
23360;SDS011;11852;50.082;18.554;2023-09-19T00:37:09;13.5;;;9.1;;
23360;SDS011;11852;50.082;18.554;2023-09-19T00:38:13;14.5;;;8.8;;
23360;SDS011;11852;50.082;18.554;2023-09-19T00:39:18;11.3;;;8.2;;
23360;SDS011;11852;50.082;18.554;2023-09-19T00:40:23;14.6;;;9.2;;
23360;SDS011;11852;50.082;18.554;2023-09-19T00:41:33;16.7;;;9.2;;
23360;SDS011;11852;50.082;18.554;2023-09-19T00:42:41;13.2;;;8.3;;
23360;SDS011;11852;50.082;18.554;2023-09-19T00:43:43;13.6;;;8.6;;
23360;SDS011;11852;50.082;18.554;2023-09-19T00:44:48;16.8;;;9.5;;
23360;SDS011;11852;50.082;18.554;2023-09-19T00:45:53;15.5;;;9.4;;
23360;SDS011;11852;50.082;18.554;2023-09-19T00:46:57;13.7;;;8.8;;
23360;SDS011;11852;50.082;18.554;2023-09-19T00:48:02;15.0;;;9.0;;
23360;SDS011;11852;50.082;18.554;2023-09-19T00:49:07;13.1;;;8.6;;
23360;SDS011;11852;50.082;18.554;2023-09-19T00:50:12;13.0;;;8.6;;
23360;SDS011;11852;50.082;18.554;2023-09-19T00:51:16;13.3;;;8.6;;
23360;SDS011;11852;50.082;18.554;2023-09-19T00:52:21;13.6;;;8.3;;
23360;SDS011;11852;50.082;18.554;2023-09-19T00:53:26;13.9;;;9.5;;
23360;SDS011;11852;50.082;18.554;2023-09-19T00:54:31;13.5;;;8.7;;
23360;SDS011;11852;50.082;18.554;2023-09-19T00:55:36;14.0;;;8.5;;
23360;SDS011;11852;50.082;18.554;2023-09-19T00:56:40;13.7;;;9.0;;
23360;SDS011;11852;50.082;18.554;2023-09-19T00:57:45;13.4;;;8.5;;
23360;SDS011;11852;50.082;18.554;2023-09-19T00:58:50;12.4;;;8.4;;
23360;SDS011;11852;50.082;18.554;2023-09-19T00:59:54;13.6;;;8.3;;
23360;SDS011;11852;50.082;18.554;2023-09-19T01:01:05;14.5;;;8.7;;
23360;SDS011;11852;50.082;18.554;2023-09-19T01:02:10;14.7;;;8.6;;
23360;SDS011;11852;50.082;18.554;2023-09-19T01:03:15;12.8;;;8.2;;
23360;SDS011;11852;50.082;18.554;2023-09-19T01:04:19;14.9;;;8.1;;
23360;SDS011;11852;50.082;18.554;2023-09-19T01:05:24;13.7;;;8.2;;
23360;SDS011;11852;50.082;18.554;2023-09-19T01:06:30;12.9;;;8.3;;
23360;SDS011;11852;50.082;18.554;2023-09-19T01:07:34;15.0;;;8.7;;
23360;SDS011;11852;50.082;18.554;2023-09-19T01:08:38;14.9;;;8.7;;
23360;SDS011;11852;50.082;18.554;2023-09-19T01:09:43;14.0;;;8.6;;
23360;SDS011;11852;50.082;18.554;2023-09-19T01:10:52;14.8;;;8.2;;
23360;SDS011;11852;50.082;18.554;2023-09-19T01:11:58;12.7;;;7.8;;
23360;SDS011;11852;50.082;18.554;2023-09-19T01:19:15;14.1;;;7.7;;
23360;SDS011;11852;50.082;18.554;2023-09-19T01:21:28;11.3;;;7.4;;
23360;SDS011;11852;50.082;18.554;2023-09-19T01:24:06;11.8;;;7.8;;
23360;SDS011;11852;50.082;18.554;2023-09-19T01:30:02;10.3;;;7.3;;
23360;SDS011;11852;50.082;18.554;2023-09-19T01:30:58;11.8;;;7.1;;
23360;SDS011;11852;50.082;18.554;2023-09-19T01:32:04;11.2;;;7.2;;
23360;SDS011;11852;50.082;18.554;2023-09-19T01:33:08;11.6;;;7.3;;
23360;SDS011;11852;50.082;18.554;2023-09-19T01:34:16;13.5;;;7.5;;
23360;SDS011;11852;50.082;18.554;2023-09-19T01:35:21;12.6;;;7.6;;
23360;SDS011;11852;50.082;18.554;2023-09-19T01:36:26;12.1;;;7.5;;
23360;SDS011;11852;50.082;18.554;2023-09-19T01:37:36;12.3;;;7.7;;
23360;SDS011;11852;50.082;18.554;2023-09-19T01:38:41;13.1;;;8.0;;
23360;SDS011;11852;50.082;18.554;2023-09-19T01:39:46;10.9;;;7.2;;
23360;SDS011;11852;50.082;18.554;2023-09-19T01:42:05;11.7;;;8.0;;
23360;SDS011;11852;50.082;18.554;2023-09-19T01:44:34;12.4;;;6.9;;
23360;SDS011;11852;50.082;18.554;2023-09-19T01:46:49;13.4;;;7.5;;
23360;SDS011;11852;50.082;18.554;2023-09-19T01:47:56;14.5;;;8.3;;
23360;SDS011;11852;50.082;18.554;2023-09-19T01:52:43;13.0;;;7.7;;
23360;SDS011;11852;50.082;18.554;2023-09-19T01:53:50;12.4;;;7.4;;
23360;SDS011;11852;50.082;18.554;2023-09-19T01:54:56;14.8;;;8.3;;
23360;SDS011;11852;50.082;18.554;2023-09-19T01:55:59;13.3;;;7.5;;
23360;SDS011;11852;50.082;18.554;2023-09-19T01:58:16;13.0;;;7.2;;
23360;SDS011;11852;50.082;18.554;2023-09-19T01:59:24;13.6;;;7.7;;
23360;SDS011;11852;50.082;18.554;2023-09-19T02:00:26;12.7;;;8.1;;
23360;SDS011;11852;50.082;18.554;2023-09-19T02:01:31;11.5;;;7.3;;
23360;SDS011;11852;50.082;18.554;2023-09-19T02:02:36;11.8;;;7.7;;
23360;SDS011;11852;50.082;18.554;2023-09-19T02:03:41;14.3;;;7.6;;
23360;SDS011;11852;50.082;18.554;2023-09-19T02:04:46;14.2;;;7.9;;
23360;SDS011;11852;50.082;18.554;2023-09-19T02:05:51;13.4;;;7.8;;
23360;SDS011;11852;50.082;18.554;2023-09-19T02:06:55;12.5;;;7.4;;
23360;SDS011;11852;50.082;18.554;2023-09-19T02:08:00;13.2;;;7.8;;
23360;SDS011;11852;50.082;18.554;2023-09-19T02:09:05;12.2;;;7.5;;
23360;SDS011;11852;50.082;18.554;2023-09-19T02:10:10;10.7;;;7.8;;
23360;SDS011;11852;50.082;18.554;2023-09-19T02:11:14;11.5;;;7.3;;
23360;SDS011;11852;50.082;18.554;2023-09-19T02:12:19;14.2;;;7.3;;
23360;SDS011;11852;50.082;18.554;2023-09-19T02:13:24;11.8;;;7.6;;
23360;SDS011;11852;50.082;18.554;2023-09-19T02:14:29;11.7;;;7.2;;
23360;SDS011;11852;50.082;18.554;2023-09-19T02:15:33;12.2;;;7.5;;
23360;SDS011;11852;50.082;18.554;2023-09-19T02:16:38;10.9;;;7.5;;
23360;SDS011;11852;50.082;18.554;2023-09-19T02:17:43;15.4;;;7.3;;
23360;SDS011;11852;50.082;18.554;2023-09-19T02:18:48;11.7;;;7.1;;
23360;SDS011;11852;50.082;18.554;2023-09-19T02:19:53;11.7;;;6.8;;
23360;SDS011;11852;50.082;18.554;2023-09-19T02:20:57;10.3;;;6.5;;
23360;SDS011;11852;50.082;18.554;2023-09-19T02:22:02;10.4;;;6.7;;
23360;SDS011;11852;50.082;18.554;2023-09-19T02:23:07;12.0;;;7.4;;
23360;SDS011;11852;50.082;18.554;2023-09-19T02:24:11;11.3;;;7.3;;
23360;SDS011;11852;50.082;18.554;2023-09-19T02:25:16;11.6;;;7.4;;
23360;SDS011;11852;50.082;18.554;2023-09-19T02:26:21;10.7;;;7.0;;
23360;SDS011;11852;50.082;18.554;2023-09-19T02:27:26;11.6;;;6.8;;
23360;SDS011;11852;50.082;18.554;2023-09-19T02:28:31;14.1;;;7.2;;
23360;SDS011;11852;50.082;18.554;2023-09-19T02:29:35;11.1;;;7.4;;
23360;SDS011;11852;50.082;18.554;2023-09-19T02:30:43;11.2;;;7.0;;
23360;SDS011;11852;50.082;18.554;2023-09-19T02:31:47;13.9;;;7.1;;
23360;SDS011;11852;50.082;18.554;2023-09-19T02:32:52;10.8;;;7.2;;
23360;SDS011;11852;50.082;18.554;2023-09-19T02:33:57;12.1;;;7.0;;
23360;SDS011;11852;50.082;18.554;2023-09-19T02:35:02;12.2;;;7.6;;
23360;SDS011;11852;50.082;18.554;2023-09-19T02:36:07;10.7;;;6.8;;
23360;SDS011;11852;50.082;18.554;2023-09-19T02:37:12;15.8;;;7.3;;
23360;SDS011;11852;50.082;18.554;2023-09-19T02:38:16;19.7;;;7.4;;
23360;SDS011;11852;50.082;18.554;2023-09-19T02:39:21;11.8;;;6.7;;
23360;SDS011;11852;50.082;18.554;2023-09-19T02:40:26;10.1;;;6.8;;
23360;SDS011;11852;50.082;18.554;2023-09-19T02:41:31;13.5;;;7.2;;
23360;SDS011;11852;50.082;18.554;2023-09-19T02:42:36;12.6;;;6.7;;
23360;SDS011;11852;50.082;18.554;2023-09-19T02:43:40;9.5;;;6.4;;
23360;SDS011;11852;50.082;18.554;2023-09-19T02:44:45;11.5;;;6.5;;
23360;SDS011;11852;50.082;18.554;2023-09-19T02:45:50;12.6;;;7.3;;
23360;SDS011;11852;50.082;18.554;2023-09-19T02:46:55;11.8;;;6.7;;
23360;SDS011;11852;50.082;18.554;2023-09-19T02:47:59;10.7;;;6.4;;
23360;SDS011;11852;50.082;18.554;2023-09-19T02:49:07;10.1;;;6.3;;
23360;SDS011;11852;50.082;18.554;2023-09-19T02:50:12;11.4;;;7.0;;
23360;SDS011;11852;50.082;18.554;2023-09-19T02:51:17;9.6;;;6.8;;
23360;SDS011;11852;50.082;18.554;2023-09-19T02:52:22;11.1;;;6.8;;
23360;SDS011;11852;50.082;18.554;2023-09-19T02:53:26;11.7;;;7.2;;
23360;SDS011;11852;50.082;18.554;2023-09-19T02:54:31;10.4;;;6.5;;
23360;SDS011;11852;50.082;18.554;2023-09-19T02:55:36;12.8;;;6.9;;
23360;SDS011;11852;50.082;18.554;2023-09-19T02:56:41;10.9;;;7.0;;
23360;SDS011;11852;50.082;18.554;2023-09-19T02:57:49;12.2;;;6.8;;
23360;SDS011;11852;50.082;18.554;2023-09-19T02:58:53;10.8;;;7.0;;
23360;SDS011;11852;50.082;18.554;2023-09-19T02:59:58;11.0;;;6.8;;
23360;SDS011;11852;50.082;18.554;2023-09-19T03:02:13;9.7;;;6.9;;
23360;SDS011;11852;50.082;18.554;2023-09-19T03:03:18;11.9;;;6.7;;
23360;SDS011;11852;50.082;18.554;2023-09-19T03:04:23;11.0;;;6.5;;
23360;SDS011;11852;50.082;18.554;2023-09-19T03:05:28;10.6;;;6.6;;
23360;SDS011;11852;50.082;18.554;2023-09-19T03:06:32;12.3;;;7.1;;
23360;SDS011;11852;50.082;18.554;2023-09-19T03:07:40;10.6;;;6.6;;
23360;SDS011;11852;50.082;18.554;2023-09-19T03:08:45;12.0;;;6.9;;
23360;SDS011;11852;50.082;18.554;2023-09-19T03:09:49;13.1;;;6.8;;
23360;SDS011;11852;50.082;18.554;2023-09-19T03:10:54;10.8;;;7.0;;
23360;SDS011;11852;50.082;18.554;2023-09-19T03:11:59;10.3;;;6.5;;
23360;SDS011;11852;50.082;18.554;2023-09-19T03:13:04;12.4;;;7.1;;
23360;SDS011;11852;50.082;18.554;2023-09-19T03:14:09;10.4;;;6.7;;
23360;SDS011;11852;50.082;18.554;2023-09-19T03:15:14;12.7;;;7.5;;
23360;SDS011;11852;50.082;18.554;2023-09-19T03:16:18;12.0;;;6.7;;
23360;SDS011;11852;50.082;18.554;2023-09-19T03:17:23;10.6;;;6.3;;
23360;SDS011;11852;50.082;18.554;2023-09-19T03:18:28;11.7;;;7.1;;
23360;SDS011;11852;50.082;18.554;2023-09-19T03:19:33;12.0;;;7.2;;
23360;SDS011;11852;50.082;18.554;2023-09-19T03:20:37;11.2;;;6.8;;
23360;SDS011;11852;50.082;18.554;2023-09-19T03:21:42;15.9;;;7.2;;
23360;SDS011;11852;50.082;18.554;2023-09-19T03:22:47;12.9;;;6.7;;
23360;SDS011;11852;50.082;18.554;2023-09-19T03:23:52;11.7;;;7.3;;
23360;SDS011;11852;50.082;18.554;2023-09-19T03:24:59;9.7;;;6.6;;
23360;SDS011;11852;50.082;18.554;2023-09-19T03:26:04;11.8;;;7.3;;
23360;SDS011;11852;50.082;18.554;2023-09-19T03:27:10;11.3;;;7.3;;
23360;SDS011;11852;50.082;18.554;2023-09-19T03:28:14;11.2;;;7.0;;
23360;SDS011;11852;50.082;18.554;2023-09-19T03:29:19;11.2;;;7.1;;
23360;SDS011;11852;50.082;18.554;2023-09-19T03:30:24;12.0;;;6.8;;
23360;SDS011;11852;50.082;18.554;2023-09-19T03:31:28;11.8;;;7.2;;
23360;SDS011;11852;50.082;18.554;2023-09-19T03:32:37;12.0;;;7.1;;
23360;SDS011;11852;50.082;18.554;2023-09-19T03:33:41;19.1;;;7.6;;
23360;SDS011;11852;50.082;18.554;2023-09-19T03:34:46;12.6;;;7.0;;
23360;SDS011;11852;50.082;18.554;2023-09-19T03:35:54;11.0;;;7.2;;
23360;SDS011;11852;50.082;18.554;2023-09-19T03:36:58;12.9;;;7.8;;
23360;SDS011;11852;50.082;18.554;2023-09-19T03:38:03;11.1;;;7.2;;
23360;SDS011;11852;50.082;18.554;2023-09-19T03:39:08;11.1;;;7.2;;
23360;SDS011;11852;50.082;18.554;2023-09-19T03:40:13;12.9;;;7.2;;
23360;SDS011;11852;50.082;18.554;2023-09-19T03:41:17;13.4;;;7.3;;
23360;SDS011;11852;50.082;18.554;2023-09-19T03:42:22;11.8;;;7.2;;
23360;SDS011;11852;50.082;18.554;2023-09-19T03:43:27;11.3;;;6.5;;
23360;SDS011;11852;50.082;18.554;2023-09-19T03:44:32;11.2;;;6.8;;
23360;SDS011;11852;50.082;18.554;2023-09-19T03:45:36;13.0;;;7.3;;
23360;SDS011;11852;50.082;18.554;2023-09-19T03:46:41;12.3;;;7.6;;
23360;SDS011;11852;50.082;18.554;2023-09-19T03:47:49;12.7;;;7.5;;
23360;SDS011;11852;50.082;18.554;2023-09-19T03:48:53;11.8;;;7.2;;
23360;SDS011;11852;50.082;18.554;2023-09-19T03:49:58;10.8;;;7.1;;
23360;SDS011;11852;50.082;18.554;2023-09-19T03:51:03;10.6;;;7.6;;
23360;SDS011;11852;50.082;18.554;2023-09-19T03:52:08;10.6;;;6.9;;
23360;SDS011;11852;50.082;18.554;2023-09-19T03:53:13;13.1;;;7.4;;
23360;SDS011;11852;50.082;18.554;2023-09-19T03:54:17;12.0;;;7.0;;
23360;SDS011;11852;50.082;18.554;2023-09-19T03:55:22;12.4;;;6.2;;
23360;SDS011;11852;50.082;18.554;2023-09-19T03:56:27;10.7;;;6.7;;
23360;SDS011;11852;50.082;18.554;2023-09-19T03:57:32;10.6;;;6.9;;
23360;SDS011;11852;50.082;18.554;2023-09-19T03:58:37;10.0;;;6.7;;
23360;SDS011;11852;50.082;18.554;2023-09-19T03:59:41;10.4;;;6.8;;
23360;SDS011;11852;50.082;18.554;2023-09-19T04:00:46;12.5;;;7.2;;
23360;SDS011;11852;50.082;18.554;2023-09-19T04:01:51;11.9;;;6.7;;
23360;SDS011;11852;50.082;18.554;2023-09-19T04:02:56;12.2;;;7.2;;
23360;SDS011;11852;50.082;18.554;2023-09-19T04:04:00;12.3;;;7.2;;
23360;SDS011;11852;50.082;18.554;2023-09-19T04:05:05;11.9;;;7.2;;
23360;SDS011;11852;50.082;18.554;2023-09-19T04:06:10;12.4;;;7.5;;
23360;SDS011;11852;50.082;18.554;2023-09-19T04:07:15;11.6;;;7.6;;
23360;SDS011;11852;50.082;18.554;2023-09-19T04:08:20;12.9;;;7.0;;
23360;SDS011;11852;50.082;18.554;2023-09-19T04:09:24;11.7;;;7.4;;
23360;SDS011;11852;50.082;18.554;2023-09-19T04:10:27;11.7;;;7.4;;
23360;SDS011;11852;50.082;18.554;2023-09-19T04:11:32;11.7;;;7.4;;
23360;SDS011;11852;50.082;18.554;2023-09-19T04:12:37;12.6;;;7.7;;
23360;SDS011;11852;50.082;18.554;2023-09-19T04:13:42;13.5;;;7.3;;
23360;SDS011;11852;50.082;18.554;2023-09-19T04:14:47;11.2;;;7.3;;
23360;SDS011;11852;50.082;18.554;2023-09-19T04:15:51;12.5;;;8.0;;
23360;SDS011;11852;50.082;18.554;2023-09-19T04:16:56;13.7;;;8.0;;
23360;SDS011;11852;50.082;18.554;2023-09-19T04:18:01;10.9;;;7.5;;
23360;SDS011;11852;50.082;18.554;2023-09-19T04:19:06;11.0;;;7.5;;
23360;SDS011;11852;50.082;18.554;2023-09-19T04:20:10;12.0;;;7.2;;
23360;SDS011;11852;50.082;18.554;2023-09-19T04:21:15;13.6;;;7.7;;
23360;SDS011;11852;50.082;18.554;2023-09-19T04:22:20;12.2;;;7.3;;
23360;SDS011;11852;50.082;18.554;2023-09-19T04:23:25;11.1;;;6.8;;
23360;SDS011;11852;50.082;18.554;2023-09-19T04:24:29;11.6;;;6.8;;
23360;SDS011;11852;50.082;18.554;2023-09-19T04:25:34;12.0;;;7.3;;
23360;SDS011;11852;50.082;18.554;2023-09-19T04:26:39;12.0;;;7.0;;
23360;SDS011;11852;50.082;18.554;2023-09-19T04:27:44;11.2;;;7.1;;
23360;SDS011;11852;50.082;18.554;2023-09-19T04:28:48;9.7;;;6.9;;
23360;SDS011;11852;50.082;18.554;2023-09-19T04:29:53;12.6;;;7.1;;
23360;SDS011;11852;50.082;18.554;2023-09-19T04:30:58;11.5;;;7.0;;
23360;SDS011;11852;50.082;18.554;2023-09-19T04:32:06;12.7;;;6.6;;
23360;SDS011;11852;50.082;18.554;2023-09-19T04:33:08;10.0;;;5.8;;
23360;SDS011;11852;50.082;18.554;2023-09-19T04:34:16;11.1;;;5.5;;
23360;SDS011;11852;50.082;18.554;2023-09-19T04:35:21;10.2;;;5.4;;
23360;SDS011;11852;50.082;18.554;2023-09-19T04:36:26;9.8;;;5.7;;
23360;SDS011;11852;50.082;18.554;2023-09-19T04:37:30;9.8;;;5.7;;
23360;SDS011;11852;50.082;18.554;2023-09-19T04:38:35;9.8;;;5.3;;
23360;SDS011;11852;50.082;18.554;2023-09-19T04:39:40;9.7;;;5.3;;
23360;SDS011;11852;50.082;18.554;2023-09-19T04:40:45;10.3;;;5.5;;
23360;SDS011;11852;50.082;18.554;2023-09-19T04:41:49;9.6;;;5.3;;
23360;SDS011;11852;50.082;18.554;2023-09-19T04:42:57;8.7;;;5.1;;
23360;SDS011;11852;50.082;18.554;2023-09-19T04:44:02;8.3;;;4.6;;
23360;SDS011;11852;50.082;18.554;2023-09-19T04:45:07;9.4;;;4.6;;
23360;SDS011;11852;50.082;18.554;2023-09-19T04:46:12;9.3;;;4.9;;
23360;SDS011;11852;50.082;18.554;2023-09-19T04:47:17;10.3;;;5.1;;
23360;SDS011;11852;50.082;18.554;2023-09-19T04:48:24;8.8;;;4.8;;
23360;SDS011;11852;50.082;18.554;2023-09-19T04:49:29;8.2;;;4.2;;
23360;SDS011;11852;50.082;18.554;2023-09-19T04:50:34;9.5;;;4.4;;
23360;SDS011;11852;50.082;18.554;2023-09-19T04:51:39;9.0;;;4.7;;
23360;SDS011;11852;50.082;18.554;2023-09-19T04:52:44;7.1;;;4.2;;
23360;SDS011;11852;50.082;18.554;2023-09-19T04:53:48;8.4;;;4.2;;
23360;SDS011;11852;50.082;18.554;2023-09-19T04:54:53;7.5;;;4.4;;
23360;SDS011;11852;50.082;18.554;2023-09-19T04:55:58;10.2;;;4.5;;
23360;SDS011;11852;50.082;18.554;2023-09-19T04:57:03;6.7;;;4.2;;
23360;SDS011;11852;50.082;18.554;2023-09-19T04:58:08;6.7;;;4.2;;
23360;SDS011;11852;50.082;18.554;2023-09-19T04:59:13;9.1;;;4.0;;
23360;SDS011;11852;50.082;18.554;2023-09-19T05:00:18;7.0;;;3.5;;
23360;SDS011;11852;50.082;18.554;2023-09-19T05:01:22;6.7;;;3.7;;
23360;SDS011;11852;50.082;18.554;2023-09-19T05:02:29;7.9;;;3.8;;
23360;SDS011;11852;50.082;18.554;2023-09-19T05:03:32;6.6;;;3.6;;
23360;SDS011;11852;50.082;18.554;2023-09-19T05:04:37;7.0;;;3.4;;
23360;SDS011;11852;50.082;18.554;2023-09-19T05:05:41;6.7;;;3.1;;
23360;SDS011;11852;50.082;18.554;2023-09-19T05:06:46;6.4;;;2.9;;
23360;SDS011;11852;50.082;18.554;2023-09-19T05:07:51;8.7;;;3.4;;
23360;SDS011;11852;50.082;18.554;2023-09-19T05:08:56;7.3;;;3.6;;
23360;SDS011;11852;50.082;18.554;2023-09-19T05:10:01;6.3;;;3.2;;
23360;SDS011;11852;50.082;18.554;2023-09-19T05:11:05;8.7;;;3.3;;
23360;SDS011;11852;50.082;18.554;2023-09-19T05:12:10;6.3;;;3.4;;
23360;SDS011;11852;50.082;18.554;2023-09-19T05:13:15;6.1;;;3.0;;
23360;SDS011;11852;50.082;18.554;2023-09-19T05:14:20;6.6;;;3.2;;
23360;SDS011;11852;50.082;18.554;2023-09-19T05:15:25;7.0;;;3.2;;
23360;SDS011;11852;50.082;18.554;2023-09-19T05:16:29;7.8;;;3.1;;
23360;SDS011;11852;50.082;18.554;2023-09-19T05:17:35;6.5;;;3.1;;
23360;SDS011;11852;50.082;18.554;2023-09-19T05:18:39;7.6;;;3.2;;
23360;SDS011;11852;50.082;18.554;2023-09-19T05:19:43;6.9;;;3.1;;
23360;SDS011;11852;50.082;18.554;2023-09-19T05:20:48;7.0;;;3.0;;
23360;SDS011;11852;50.082;18.554;2023-09-19T05:21:53;7.1;;;3.2;;
23360;SDS011;11852;50.082;18.554;2023-09-19T05:23:01;6.4;;;2.9;;
23360;SDS011;11852;50.082;18.554;2023-09-19T05:24:05;5.1;;;2.8;;
23360;SDS011;11852;50.082;18.554;2023-09-19T05:25:10;7.2;;;2.7;;
23360;SDS011;11852;50.082;18.554;2023-09-19T05:26:15;5.9;;;2.9;;
23360;SDS011;11852;50.082;18.554;2023-09-19T05:27:20;7.1;;;3.2;;
23360;SDS011;11852;50.082;18.554;2023-09-19T05:28:25;6.9;;;2.6;;
23360;SDS011;11852;50.082;18.554;2023-09-19T05:29:29;6.6;;;3.0;;
23360;SDS011;11852;50.082;18.554;2023-09-19T05:30:34;7.9;;;2.9;;
23360;SDS011;11852;50.082;18.554;2023-09-19T05:31:39;5.4;;;2.7;;
23360;SDS011;11852;50.082;18.554;2023-09-19T05:32:44;5.6;;;2.5;;
23360;SDS011;11852;50.082;18.554;2023-09-19T05:33:48;6.8;;;2.9;;
23360;SDS011;11852;50.082;18.554;2023-09-19T05:34:53;5.9;;;2.5;;
23360;SDS011;11852;50.082;18.554;2023-09-19T05:35:58;5.5;;;2.1;;
23360;SDS011;11852;50.082;18.554;2023-09-19T05:37:03;5.5;;;2.1;;
23360;SDS011;11852;50.082;18.554;2023-09-19T05:38:07;4.8;;;2.3;;
23360;SDS011;11852;50.082;18.554;2023-09-19T05:39:12;4.7;;;1.9;;
23360;SDS011;11852;50.082;18.554;2023-09-19T05:40:18;6.8;;;1.9;;
23360;SDS011;11852;50.082;18.554;2023-09-19T05:41:22;5.1;;;1.8;;
23360;SDS011;11852;50.082;18.554;2023-09-19T05:42:27;5.1;;;1.8;;
23360;SDS011;11852;50.082;18.554;2023-09-19T05:43:32;5.0;;;1.9;;
23360;SDS011;11852;50.082;18.554;2023-09-19T05:44:37;6.6;;;1.8;;
23360;SDS011;11852;50.082;18.554;2023-09-19T05:45:41;5.6;;;2.0;;
23360;SDS011;11852;50.082;18.554;2023-09-19T05:46:46;5.4;;;1.7;;
23360;SDS011;11852;50.082;18.554;2023-09-19T05:47:51;7.3;;;1.8;;
23360;SDS011;11852;50.082;18.554;2023-09-19T05:48:59;5.5;;;1.8;;
23360;SDS011;11852;50.082;18.554;2023-09-19T05:50:03;5.5;;;2.0;;
23360;SDS011;11852;50.082;18.554;2023-09-19T05:51:08;8.4;;;1.9;;
23360;SDS011;11852;50.082;18.554;2023-09-19T05:52:13;5.1;;;1.8;;
23360;SDS011;11852;50.082;18.554;2023-09-19T05:53:18;5.1;;;1.8;;
23360;SDS011;11852;50.082;18.554;2023-09-19T05:54:22;4.5;;;1.8;;
23360;SDS011;11852;50.082;18.554;2023-09-19T05:55:27;5.2;;;1.8;;
23360;SDS011;11852;50.082;18.554;2023-09-19T05:56:32;5.0;;;1.9;;
23360;SDS011;11852;50.082;18.554;2023-09-19T05:57:37;5.1;;;2.2;;
23360;SDS011;11852;50.082;18.554;2023-09-19T05:58:42;5.1;;;1.8;;
23360;SDS011;11852;50.082;18.554;2023-09-19T05:59:46;4.1;;;1.8;;
23360;SDS011;11852;50.082;18.554;2023-09-19T06:00:51;4.6;;;1.9;;
23360;SDS011;11852;50.082;18.554;2023-09-19T06:01:56;5.1;;;1.8;;
23360;SDS011;11852;50.082;18.554;2023-09-19T06:03:01;3.8;;;1.8;;
23360;SDS011;11852;50.082;18.554;2023-09-19T06:04:05;4.6;;;1.5;;
23360;SDS011;11852;50.082;18.554;2023-09-19T06:05:10;4.8;;;1.2;;
23360;SDS011;11852;50.082;18.554;2023-09-19T06:06:15;5.5;;;1.5;;
23360;SDS011;11852;50.082;18.554;2023-09-19T06:07:20;3.6;;;1.2;;
23360;SDS011;11852;50.082;18.554;2023-09-19T06:08:24;3.7;;;1.1;;
23360;SDS011;11852;50.082;18.554;2023-09-19T06:09:29;3.8;;;1.4;;
23360;SDS011;11852;50.082;18.554;2023-09-19T06:10:34;4.4;;;1.4;;
23360;SDS011;11852;50.082;18.554;2023-09-19T06:11:41;3.5;;;1.3;;
23360;SDS011;11852;50.082;18.554;2023-09-19T06:12:44;4.5;;;1.2;;
23360;SDS011;11852;50.082;18.554;2023-09-19T06:13:49;3.9;;;1.3;;
23360;SDS011;11852;50.082;18.554;2023-09-19T06:14:53;3.4;;;1.2;;
23360;SDS011;11852;50.082;18.554;2023-09-19T06:15:59;5.1;;;1.2;;
23360;SDS011;11852;50.082;18.554;2023-09-19T06:17:03;4.0;;;1.3;;
23360;SDS011;11852;50.082;18.554;2023-09-19T06:18:10;3.9;;;1.4;;
23360;SDS011;11852;50.082;18.554;2023-09-19T06:19:13;4.2;;;1.4;;
23360;SDS011;11852;50.082;18.554;2023-09-19T06:20:18;4.0;;;1.2;;
23360;SDS011;11852;50.082;18.554;2023-09-19T06:21:22;3.9;;;1.4;;
23360;SDS011;11852;50.082;18.554;2023-09-19T06:22:27;6.0;;;1.6;;
23360;SDS011;11852;50.082;18.554;2023-09-19T06:23:32;5.0;;;1.4;;
23360;SDS011;11852;50.082;18.554;2023-09-19T06:24:37;5.0;;;1.3;;
23360;SDS011;11852;50.082;18.554;2023-09-19T06:25:41;3.4;;;1.2;;
23360;SDS011;11852;50.082;18.554;2023-09-19T06:26:46;4.5;;;1.5;;
23360;SDS011;11852;50.082;18.554;2023-09-19T06:27:53;3.7;;;1.4;;
23360;SDS011;11852;50.082;18.554;2023-09-19T06:28:58;4.7;;;1.4;;
23360;SDS011;11852;50.082;18.554;2023-09-19T06:30:03;3.7;;;1.2;;
23360;SDS011;11852;50.082;18.554;2023-09-19T06:31:08;5.3;;;1.4;;
23360;SDS011;11852;50.082;18.554;2023-09-19T06:32:13;4.5;;;1.2;;
23360;SDS011;11852;50.082;18.554;2023-09-19T06:33:18;4.7;;;1.6;;
23360;SDS011;11852;50.082;18.554;2023-09-19T06:34:23;3.6;;;1.6;;
23360;SDS011;11852;50.082;18.554;2023-09-19T06:35:28;4.2;;;1.6;;
23360;SDS011;11852;50.082;18.554;2023-09-19T06:36:32;7.0;;;1.5;;
23360;SDS011;11852;50.082;18.554;2023-09-19T06:37:41;5.0;;;1.5;;
23360;SDS011;11852;50.082;18.554;2023-09-19T06:38:45;6.5;;;1.6;;
23360;SDS011;11852;50.082;18.554;2023-09-19T06:39:50;5.7;;;1.5;;
23360;SDS011;11852;50.082;18.554;2023-09-19T06:40:54;4.2;;;1.3;;
23360;SDS011;11852;50.082;18.554;2023-09-19T06:41:59;5.7;;;1.5;;
23360;SDS011;11852;50.082;18.554;2023-09-19T06:43:04;4.4;;;1.7;;
23360;SDS011;11852;50.082;18.554;2023-09-19T06:44:09;4.3;;;1.6;;
23360;SDS011;11852;50.082;18.554;2023-09-19T06:45:14;4.1;;;1.4;;
23360;SDS011;11852;50.082;18.554;2023-09-19T06:46:18;5.0;;;1.5;;
23360;SDS011;11852;50.082;18.554;2023-09-19T06:47:23;6.7;;;1.5;;
23360;SDS011;11852;50.082;18.554;2023-09-19T06:48:28;5.2;;;1.7;;
23360;SDS011;11852;50.082;18.554;2023-09-19T06:49:32;4.7;;;1.5;;
23360;SDS011;11852;50.082;18.554;2023-09-19T06:50:37;4.6;;;1.6;;
23360;SDS011;11852;50.082;18.554;2023-09-19T06:51:42;5.1;;;1.7;;
23360;SDS011;11852;50.082;18.554;2023-09-19T06:52:50;6.1;;;1.5;;
23360;SDS011;11852;50.082;18.554;2023-09-19T06:53:54;5.1;;;1.5;;
23360;SDS011;11852;50.082;18.554;2023-09-19T06:54:59;4.6;;;1.5;;
23360;SDS011;11852;50.082;18.554;2023-09-19T06:56:04;4.7;;;1.8;;
23360;SDS011;11852;50.082;18.554;2023-09-19T06:57:08;4.3;;;1.4;;